Time;durP1;ratioP1;P1;durP2;ratioP2;P2;SDS_P1;SDS_P2;PMS_P1;PMS_P2;Temp;Humidity;BMP_temperature;BMP_pressure;BME280_temperature;BME280_humidity;BME280_pressure;Samples;Min_cycle;Max_cycle;Signal;HPM_P1;HPM_P2
2022/03/15 00:00:55;;;;;;;28.47;15.93;;;;;;;;;;5093215;28;20473;-70
2022/03/15 00:03:23;;;;;;;29.33;15.53;;;;;;;;;;5093085;28;20478;-71
2022/03/15 00:05:50;;;;;;;28.97;16.77;;;;;;;;;;5092839;28;20952;-70
2022/03/15 00:08:17;;;;;;;24.20;14.80;;;;;;;;;;5092879;28;20473;-70
2022/03/15 00:10:46;;;;;;;25.30;14.90;;;;;;;;;;5093051;28;20508;-70
2022/03/15 00:13:14;;;;;;;22.90;14.87;;;;;;;;;;5093052;28;20469;-70
2022/03/15 00:15:42;;;;;;;22.07;15.90;;;;;;;;;;5092743;28;20913;-70
2022/03/15 00:18:09;;;;;;;23.17;14.93;;;;;;;;;;5093026;28;21048;-70
2022/03/15 00:20:37;;;;;;;21.53;14.10;;;;;;;;;;5092877;28;20632;-70
2022/03/15 00:23:04;;;;;;;28.17;13.50;;;;;;;;;;5092661;28;20450;-70
2022/03/15 00:25:31;;;;;;;25.57;15.30;;;;;;;;;;5092764;28;20450;-70
2022/03/15 00:27:59;;;;;;;21.90;14.80;;;;;;;;;;5092582;28;20470;-70
2022/03/15 00:30:27;;;;;;;27.83;15.53;;;;;;;;;;5092894;28;20492;-70
2022/03/15 00:32:54;;;;;;;22.17;13.23;;;;;;;;;;5092603;28;20450;-70
2022/03/15 00:35:24;;;;;;;27.00;15.83;;;;;;;;;;5092652;28;20471;-71
2022/03/15 00:37:52;;;;;;;24.73;14.90;;;;;;;;;;5092648;28;20470;-70
2022/03/15 00:40:20;;;;;;;32.00;14.07;;;;;;;;;;5092862;28;20861;-70
2022/03/15 00:42:50;;;;;;;24.70;13.90;;;;;;;;;;5092761;28;20974;-70
2022/03/15 00:45:18;;;;;;;25.47;13.90;;;;;;;;;;5092592;28;20497;-70
2022/03/15 00:47:46;;;;;;;23.87;15.27;;;;;;;;;;5092354;28;20900;-70
2022/03/15 00:50:13;;;;;;;21.77;13.73;;;;;;;;;;5092750;28;20459;-70
2022/03/15 00:52:41;;;;;;;20.50;14.43;;;;;;;;;;5092427;28;20450;-70
2022/03/15 00:55:09;;;;;;;24.53;15.00;;;;;;;;;;5092395;28;20541;-70
2022/03/15 00:57:36;;;;;;;30.57;16.97;;;;;;;;;;5092437;28;20474;-70
2022/03/15 01:00:04;;;;;;;25.07;16.70;;;;;;;;;;5092557;28;20446;-70
2022/03/15 01:02:31;;;;;;;27.87;17.43;;;;;;;;;;5092485;28;20979;-70
2022/03/15 01:05:00;;;;;;;27.00;15.73;;;;;;;;;;5091706;28;20486;-70
2022/03/15 01:07:27;;;;;;;31.87;16.60;;;;;;;;;;5092418;28;20891;-70
2022/03/15 01:09:54;;;;;;;39.97;18.23;;;;;;;;;;5095421;28;20458;-70
2022/03/15 01:12:21;;;;;;;26.63;16.90;;;;;;;;;;5096444;28;20447;-70
2022/03/15 01:14:48;;;;;;;28.30;16.77;;;;;;;;;;5096045;28;20803;-70
2022/03/15 01:17:16;;;;;;;24.47;15.87;;;;;;;;;;5096397;28;20478;-70
2022/03/15 01:19:43;;;;;;;29.23;18.20;;;;;;;;;;5096343;28;20807;-70
2022/03/15 01:22:11;;;;;;;33.37;16.87;;;;;;;;;;5096383;28;20865;-70
2022/03/15 01:24:38;;;;;;;30.17;18.57;;;;;;;;;;5095988;28;20482;-70
2022/03/15 01:27:05;;;;;;;39.53;19.37;;;;;;;;;;5096144;28;20997;-70
2022/03/15 01:29:33;;;;;;;33.30;18.23;;;;;;;;;;5096220;28;20485;-70
2022/03/15 01:32:00;;;;;;;26.20;16.43;;;;;;;;;;5096192;28;20823;-70
2022/03/15 01:34:28;;;;;;;26.00;17.50;;;;;;;;;;5096120;28;20446;-70
2022/03/15 01:36:55;;;;;;;34.03;16.90;;;;;;;;;;5096007;28;20947;-70
2022/03/15 01:39:23;;;;;;;26.70;16.80;;;;;;;;;;5095994;28;20871;-70
2022/03/15 01:41:50;;;;;;;28.13;17.90;;;;;;;;;;5096044;28;20451;-70
2022/03/15 01:44:19;;;;;;;29.20;16.70;;;;;;;;;;5095567;28;20486;-70
2022/03/15 01:46:46;;;;;;;33.37;20.97;;;;;;;;;;5095885;28;20450;-70
2022/03/15 01:49:14;;;;;;;25.40;16.77;;;;;;;;;;5095710;28;20477;-70
2022/03/15 01:51:41;;;;;;;31.60;18.90;;;;;;;;;;5095889;28;20442;-70
2022/03/15 01:54:09;;;;;;;27.53;18.33;;;;;;;;;;5095715;28;20546;-70
2022/03/15 01:56:41;;;;;;;27.40;17.50;;;;;;;;;;5095652;28;20449;-70
2022/03/15 01:59:09;;;;;;;26.10;17.27;;;;;;;;;;5095701;28;20457;-70
2022/03/15 02:01:36;;;;;;;31.10;17.80;;;;;;;;;;5095498;28;20862;-70
2022/03/15 02:04:03;;;;;;;33.10;19.57;;;;;;;;;;5094670;28;20534;-70
2022/03/15 02:06:30;;;;;;;30.23;18.80;;;;;;;;;;5095807;28;20451;-70
2022/03/15 02:08:58;;;;;;;27.47;17.20;;;;;;;;;;5095306;28;20481;-70
2022/03/15 02:11:27;;;;;;;29.10;18.97;;;;;;;;;;5095401;28;20490;-70
2022/03/15 02:13:56;;;;;;;39.60;18.40;;;;;;;;;;5094985;28;20975;-70
2022/03/15 02:16:23;;;;;;;28.53;17.93;;;;;;;;;;5095480;28;20792;-70
2022/03/15 02:18:50;;;;;;;30.00;18.13;;;;;;;;;;5095106;28;20853;-70
2022/03/15 02:21:19;;;;;;;32.90;19.23;;;;;;;;;;5095019;28;20446;-71
2022/03/15 02:23:46;;;;;;;34.97;20.07;;;;;;;;;;5094754;28;20454;-70
2022/03/15 02:26:13;;;;;;;29.90;18.70;;;;;;;;;;5095169;28;20455;-70
2022/03/15 02:28:40;;;;;;;32.13;19.27;;;;;;;;;;5094846;28;20471;-71
2022/03/15 02:31:08;;;;;;;29.70;17.90;;;;;;;;;;5095196;28;20451;-70
2022/03/15 02:33:35;;;;;;;27.23;16.73;;;;;;;;;;5094890;28;20457;-70
2022/03/15 02:36:02;;;;;;;32.13;19.33;;;;;;;;;;5094906;28;20462;-70
2022/03/15 02:38:30;;;;;;;26.67;18.00;;;;;;;;;;5095242;28;21002;-70
2022/03/15 02:40:58;;;;;;;34.20;19.13;;;;;;;;;;5094955;28;20947;-70
2022/03/15 02:43:25;;;;;;;31.63;19.63;;;;;;;;;;5094931;28;20478;-70
2022/03/15 02:45:52;;;;;;;31.00;18.70;;;;;;;;;;5094713;28;20495;-70
2022/03/15 02:48:20;;;;;;;27.60;19.13;;;;;;;;;;5094664;28;20482;-70
2022/03/15 02:50:47;;;;;;;33.43;20.47;;;;;;;;;;5094656;28;20457;-71
2022/03/15 02:53:15;;;;;;;30.97;21.47;;;;;;;;;;5094806;28;20511;-70
2022/03/15 02:55:43;;;;;;;30.13;19.60;;;;;;;;;;5094278;28;20453;-71
2022/03/15 02:58:11;;;;;;;30.83;20.10;;;;;;;;;;5094644;28;20852;-71
2022/03/15 03:00:38;;;;;;;32.30;20.90;;;;;;;;;;5094775;28;20454;-70
2022/03/15 03:03:05;;;;;;;34.03;20.60;;;;;;;;;;5094033;28;20458;-70
2022/03/15 03:05:32;;;;;;;32.03;20.00;;;;;;;;;;5094190;28;20489;-71
2022/03/15 03:08:00;;;;;;;35.57;19.90;;;;;;;;;;5094348;28;20462;-70
2022/03/15 03:10:27;;;;;;;27.57;19.90;;;;;;;;;;5094303;28;20495;-70
2022/03/15 03:12:56;;;;;;;41.37;20.67;;;;;;;;;;5094305;28;20956;-70
2022/03/15 03:15:23;;;;;;;32.10;19.53;;;;;;;;;;5093777;28;20476;-70
2022/03/15 03:17:51;;;;;;;33.03;20.50;;;;;;;;;;5094025;28;20508;-70
2022/03/15 03:20:19;;;;;;;32.40;20.93;;;;;;;;;;5094305;28;20470;-70
2022/03/15 03:22:47;;;;;;;36.37;22.03;;;;;;;;;;5094031;28;20451;-71
2022/03/15 03:25:15;;;;;;;33.50;20.83;;;;;;;;;;5093692;28;20573;-70
2022/03/15 03:27:42;;;;;;;31.50;22.10;;;;;;;;;;5094018;28;20475;-70
2022/03/15 03:30:12;;;;;;;37.60;22.30;;;;;;;;;;5093888;28;21054;-70
2022/03/15 03:32:40;;;;;;;34.07;21.40;;;;;;;;;;5093446;28;20455;-72
2022/03/15 03:35:07;;;;;;;34.40;21.33;;;;;;;;;;5093689;28;20450;-70
2022/03/15 03:37:34;;;;;;;37.30;24.57;;;;;;;;;;5093954;28;20998;-70
2022/03/15 03:40:07;;;;;;;31.03;19.03;;;;;;;;;;5093765;28;20451;-70
2022/03/15 03:42:34;;;;;;;40.40;22.10;;;;;;;;;;5093784;28;20465;-70
2022/03/15 03:45:01;;;;;;;29.83;20.77;;;;;;;;;;5093333;28;20482;-70
2022/03/15 03:47:30;;;;;;;38.43;21.27;;;;;;;;;;5093556;28;20477;-70
2022/03/15 03:49:57;;;;;;;33.57;17.97;;;;;;;;;;5093549;28;20505;-70
2022/03/15 03:52:25;;;;;;;35.60;22.80;;;;;;;;;;5093509;28;20462;-70
2022/03/15 03:54:52;;;;;;;31.00;21.50;;;;;;;;;;5093302;28;20461;-70
2022/03/15 03:57:19;;;;;;;34.63;22.50;;;;;;;;;;5093498;28;20558;-71
2022/03/15 03:59:46;;;;;;;36.67;22.97;;;;;;;;;;5093492;28;20885;-71
2022/03/15 04:02:13;;;;;;;36.60;22.77;;;;;;;;;;5093332;28;20486;-71
2022/03/15 04:04:42;;;;;;;33.53;22.27;;;;;;;;;;5092766;28;20998;-70
2022/03/15 04:07:09;;;;;;;33.70;22.10;;;;;;;;;;5093314;28;20473;-70
2022/03/15 04:09:37;;;;;;;34.73;23.63;;;;;;;;;;5093324;28;20461;-70
2022/03/15 04:12:06;;;;;;;34.50;23.20;;;;;;;;;;5093177;28;20459;-70
2022/03/15 04:14:34;;;;;;;34.27;23.47;;;;;;;;;;5092812;28;20478;-70
2022/03/15 04:17:01;;;;;;;41.33;23.93;;;;;;;;;;5093082;28;20478;-70
2022/03/15 04:19:28;;;;;;;35.63;23.87;;;;;;;;;;5093161;28;20455;-70
2022/03/15 04:21:57;;;;;;;36.27;22.83;;;;;;;;;;5093089;28;20446;-70
2022/03/15 04:24:24;;;;;;;34.20;21.50;;;;;;;;;;5092948;28;20800;-70
2022/03/15 04:26:51;;;;;;;33.00;21.80;;;;;;;;;;5092991;28;20457;-70
2022/03/15 04:29:19;;;;;;;36.20;23.97;;;;;;;;;;5093162;28;20446;-71
2022/03/15 04:31:46;;;;;;;33.23;22.60;;;;;;;;;;5092909;28;20449;-70
2022/03/15 04:34:13;;;;;;;38.27;23.33;;;;;;;;;;5092752;28;20450;-70
2022/03/15 04:36:41;;;;;;;38.63;23.60;;;;;;;;;;5092944;28;20939;-70
2022/03/15 04:39:09;;;;;;;31.87;21.00;;;;;;;;;;5092831;28;20932;-70
2022/03/15 04:41:36;;;;;;;46.20;25.97;;;;;;;;;;5093004;28;20473;-70
2022/03/15 04:44:03;;;;;;;41.03;24.07;;;;;;;;;;5094264;28;20454;-70
2022/03/15 04:46:30;;;;;;;29.13;20.77;;;;;;;;;;5097106;28;20521;-70
2022/03/15 04:48:57;;;;;;;36.40;22.63;;;;;;;;;;5096908;28;21021;-70
2022/03/15 04:51:25;;;;;;;34.20;21.43;;;;;;;;;;5097120;28;20841;-70
2022/03/15 04:53:52;;;;;;;38.50;24.20;;;;;;;;;;5096867;28;20457;-70
2022/03/15 04:56:21;;;;;;;34.70;21.87;;;;;;;;;;5097059;28;20447;-70
2022/03/15 04:58:48;;;;;;;37.43;22.63;;;;;;;;;;5096841;28;21042;-71
2022/03/15 05:01:15;;;;;;;39.27;23.10;;;;;;;;;;5096763;28;20477;-70
2022/03/15 05:03:42;;;;;;;35.00;21.37;;;;;;;;;;5096155;28;20454;-70
2022/03/15 05:06:09;;;;;;;38.33;24.00;;;;;;;;;;5096704;28;20481;-70
2022/03/15 05:08:36;;;;;;;32.40;21.27;;;;;;;;;;5096646;28;20470;-70
2022/03/15 05:11:09;;;;;;;34.97;22.30;;;;;;;;;;5096572;28;20821;-70
2022/03/15 05:13:39;;;;;;;36.20;22.67;;;;;;;;;;5096451;28;20454;-70
2022/03/15 05:16:07;;;;;;;35.07;22.10;;;;;;;;;;5096178;28;20954;-70
2022/03/15 05:18:34;;;;;;;38.47;23.60;;;;;;;;;;5096433;28;20466;-70
2022/03/15 05:21:02;;;;;;;35.60;21.73;;;;;;;;;;5096356;28;20451;-70
2022/03/15 05:23:30;;;;;;;35.70;23.10;;;;;;;;;;5096128;28;20476;-71
2022/03/15 05:25:57;;;;;;;35.17;24.77;;;;;;;;;;5096124;28;20998;-70
2022/03/15 05:28:24;;;;;;;37.13;23.70;;;;;;;;;;5096281;28;20481;-70
2022/03/15 05:30:53;;;;;;;41.27;23.50;;;;;;;;;;5096096;28;20462;-70
2022/03/15 05:33:20;;;;;;;36.10;24.33;;;;;;;;;;5096490;28;20462;-70
2022/03/15 05:35:47;;;;;;;41.30;22.97;;;;;;;;;;5096054;28;20449;-70
2022/03/15 05:38:14;;;;;;;41.13;26.60;;;;;;;;;;5096095;28;20863;-70
2022/03/15 05:40:42;;;;;;;37.33;24.67;;;;;;;;;;5096277;28;20537;-70
2022/03/15 05:43:09;;;;;;;37.07;22.17;;;;;;;;;;5096282;28;20455;-70
2022/03/15 05:45:36;;;;;;;33.73;21.83;;;;;;;;;;5095887;28;20489;-70
2022/03/15 05:48:04;;;;;;;31.37;22.67;;;;;;;;;;5095761;28;20490;-70
2022/03/15 05:50:32;;;;;;;35.40;22.37;;;;;;;;;;5095990;28;20818;-70
2022/03/15 05:53:03;;;;;;;43.17;26.70;;;;;;;;;;5095758;28;20776;-70
2022/03/15 05:55:30;;;;;;;39.20;25.07;;;;;;;;;;5095258;28;20539;-70
2022/03/15 05:57:57;;;;;;;37.63;22.77;;;;;;;;;;5095574;28;20475;-71
2022/03/15 06:00:26;;;;;;;36.40;23.27;;;;;;;;;;5095722;28;20447;-71
2022/03/15 06:02:53;;;;;;;46.53;25.20;;;;;;;;;;5095377;28;20461;-71
2022/03/15 06:05:21;;;;;;;36.43;21.83;;;;;;;;;;5095060;28;20956;-71
2022/03/15 06:07:49;;;;;;;40.07;23.60;;;;;;;;;;5095466;28;20544;-70
2022/03/15 06:10:17;;;;;;;37.77;23.73;;;;;;;;;;5095469;28;20454;-70
2022/03/15 06:12:45;;;;;;;43.27;21.27;;;;;;;;;;5095486;28;20453;-70
2022/03/15 06:15:13;;;;;;;47.57;22.10;;;;;;;;;;5095063;28;20457;-70
2022/03/15 06:17:46;;;;;;;31.47;21.53;;;;;;;;;;5095436;28;20502;-71
2022/03/15 06:20:14;;;;;;;37.33;21.97;;;;;;;;;;5095306;28;20450;-70
2022/03/15 06:22:43;;;;;;;31.30;19.33;;;;;;;;;;5095321;28;20443;-70
2022/03/15 06:25:10;;;;;;;34.90;21.73;;;;;;;;;;5095066;28;20450;-70
2022/03/15 06:27:38;;;;;;;31.07;20.93;;;;;;;;;;5095215;28;20471;-70
2022/03/15 06:30:06;;;;;;;31.07;20.80;;;;;;;;;;5095124;28;20940;-70
2022/03/15 06:32:34;;;;;;;31.63;19.60;;;;;;;;;;5095114;28;20508;-71
2022/03/15 06:35:06;;;;;;;32.27;19.33;;;;;;;;;;5094940;28;20442;-70
2022/03/15 06:37:34;;;;;;;27.73;20.57;;;;;;;;;;5094976;28;20477;-70
2022/03/15 06:40:03;;;;;;;29.43;19.33;;;;;;;;;;5094892;28;20489;-70
2022/03/15 06:42:31;;;;;;;31.30;19.50;;;;;;;;;;5094924;28;20477;-70
2022/03/15 06:44:58;;;;;;;28.63;19.70;;;;;;;;;;5094578;28;20454;-70
2022/03/15 06:47:25;;;;;;;31.33;22.13;;;;;;;;;;5094633;28;20474;-70
2022/03/15 06:49:52;;;;;;;29.17;19.33;;;;;;;;;;5094736;28;20447;-70
2022/03/15 06:52:19;;;;;;;30.73;20.00;;;;;;;;;;5094758;28;20446;-70
2022/03/15 06:54:46;;;;;;;29.13;19.17;;;;;;;;;;5094521;28;20451;-70
2022/03/15 06:57:15;;;;;;;31.20;19.97;;;;;;;;;;5094645;28;20462;-70
2022/03/15 06:59:42;;;;;;;31.93;20.47;;;;;;;;;;5094669;28;20482;-70
2022/03/15 07:02:11;;;;;;;34.27;20.17;;;;;;;;;;5094534;28;20826;-70
2022/03/15 07:04:38;;;;;;;38.07;20.33;;;;;;;;;;5093796;28;20458;-70
2022/03/15 07:07:05;;;;;;;28.13;19.33;;;;;;;;;;5093379;28;20498;-70
2022/03/15 07:09:32;;;;;;;29.10;19.27;;;;;;;;;;5094460;28;20446;-70
2022/03/15 07:11:59;;;;;;;26.90;19.40;;;;;;;;;;5094286;28;20455;-70
2022/03/15 07:14:28;;;;;;;41.23;19.90;;;;;;;;;;5094071;28;20454;-70
2022/03/15 07:16:55;;;;;;;41.33;21.07;;;;;;;;;;5097169;28;20439;-70
2022/03/15 07:19:22;;;;;;;25.73;17.90;;;;;;;;;;5094352;28;20847;-70
2022/03/15 07:21:49;;;;;;;28.13;18.93;;;;;;;;;;5094165;28;20458;-70
2022/03/15 07:24:17;;;;;;;28.93;19.97;;;;;;;;;;5094200;28;20454;-70
2022/03/15 07:26:44;;;;;;;27.57;19.73;;;;;;;;;;5094041;28;20528;-70
2022/03/15 07:29:11;;;;;;;29.57;20.83;;;;;;;;;;5094080;28;20453;-70
2022/03/15 07:31:39;;;;;;;26.30;18.87;;;;;;;;;;5093958;28;20459;-70
2022/03/15 07:34:06;;;;;;;32.50;19.00;;;;;;;;;;5089162;28;20458;-70
2022/03/15 07:36:35;;;;;;;23.43;17.70;;;;;;;;;;5092524;28;20821;-70
2022/03/15 07:39:03;;;;;;;25.30;17.70;;;;;;;;;;5092519;28;20466;-70
2022/03/15 07:41:34;;;;;;;26.23;17.93;;;;;;;;;;5092538;28;20451;-70
2022/03/15 07:44:01;;;;;;;24.80;17.73;;;;;;;;;;5092182;28;20957;-70
2022/03/15 07:46:28;;;;;;;22.73;17.23;;;;;;;;;;5092214;28;20489;-70
2022/03/15 07:48:57;;;;;;;23.10;16.47;;;;;;;;;;5091995;28;20491;-70
2022/03/15 07:51:24;;;;;;;21.43;16.03;;;;;;;;;;5092280;28;20450;-70
2022/03/15 07:53:51;;;;;;;25.63;18.53;;;;;;;;;;5092089;28;20446;-70
2022/03/15 07:56:19;;;;;;;27.47;17.20;;;;;;;;;;5092163;28;20443;-70
2022/03/15 07:58:46;;;;;;;28.73;20.50;;;;;;;;;;5092031;28;20477;-70
2022/03/15 08:01:13;;;;;;;28.37;17.23;;;;;;;;;;5092219;28;20459;-70
2022/03/15 08:03:41;;;;;;;27.10;17.87;;;;;;;;;;5091523;28;20455;-70
2022/03/15 08:06:09;;;;;;;29.83;19.07;;;;;;;;;;5091774;28;20486;-70
2022/03/15 08:08:36;;;;;;;23.43;16.97;;;;;;;;;;5091984;28;21006;-70
2022/03/15 08:11:06;;;;;;;27.07;17.60;;;;;;;;;;5091777;28;20463;-70
2022/03/15 08:13:34;;;;;;;23.17;17.10;;;;;;;;;;5110482;28;20476;-70
2022/03/15 08:16:01;;;;;;;19.37;14.47;;;;;;;;;;5112182;28;20450;-70
2022/03/15 08:18:28;;;;;;;16.53;12.73;;;;;;;;;;5112281;28;20989;-70
2022/03/15 08:20:58;;;;;;;18.33;12.00;;;;;;;;;;5112124;28;20452;-70
2022/03/15 08:23:27;;;;;;;16.70;12.70;;;;;;;;;;5112221;28;20493;-70
2022/03/15 08:25:55;;;;;;;21.10;12.20;;;;;;;;;;5111886;28;20508;-70
2022/03/15 08:28:23;;;;;;;16.83;13.20;;;;;;;;;;5112297;28;20477;-70
2022/03/15 08:30:50;;;;;;;15.30;12.70;;;;;;;;;;5111990;28;20458;-70
2022/03/15 08:33:17;;;;;;;13.60;11.17;;;;;;;;;;5111999;28;20453;-70
2022/03/15 08:35:44;;;;;;;12.03;10.10;;;;;;;;;;5111768;28;20446;-70
2022/03/15 08:38:12;;;;;;;14.03;11.17;;;;;;;;;;5111771;28;20847;-70
2022/03/15 08:40:40;;;;;;;17.20;12.23;;;;;;;;;;5112016;28;20794;-70
2022/03/15 08:43:08;;;;;;;14.87;11.27;;;;;;;;;;5111748;28;20449;-70
2022/03/15 08:45:35;;;;;;;12.63;10.90;;;;;;;;;;5111875;28;20549;-70
2022/03/15 08:48:03;;;;;;;17.53;10.50;;;;;;;;;;5111465;28;20479;-70
2022/03/15 08:50:30;;;;;;;14.63;10.43;;;;;;;;;;5111674;28;20864;-70
2022/03/15 08:52:57;;;;;;;14.57;9.97;;;;;;;;;;5111887;28;20445;-70
2022/03/15 08:55:26;;;;;;;32.57;11.90;;;;;;;;;;5111580;28;20449;-70
2022/03/15 08:57:54;;;;;;;16.30;12.63;;;;;;;;;;5111555;28;21063;-70
2022/03/15 09:00:22;;;;;;;17.50;10.93;;;;;;;;;;5111896;28;20446;-70
2022/03/15 09:02:49;;;;;;;17.43;12.67;;;;;;;;;;5111608;28;20469;-70
2022/03/15 09:05:19;;;;;;;19.90;11.10;;;;;;;;;;5111486;28;20452;-70
2022/03/15 09:07:51;;;;;;;16.50;12.50;;;;;;;;;;5111632;28;20495;-70
2022/03/15 09:10:18;;;;;;;16.27;11.30;;;;;;;;;;5111774;28;20820;-70
2022/03/15 09:12:46;;;;;;;16.53;11.90;;;;;;;;;;5111629;28;20957;-70
2022/03/15 09:15:14;;;;;;;29.80;12.80;;;;;;;;;;5111707;28;20472;-70
2022/03/15 09:17:41;;;;;;;15.80;11.97;;;;;;;;;;5111492;28;20470;-70
2022/03/15 09:20:09;;;;;;;16.80;11.20;;;;;;;;;;5111480;28;20523;-70
2022/03/15 09:22:36;;;;;;;19.43;12.40;;;;;;;;;;5111676;28;20453;-70
2022/03/15 09:25:04;;;;;;;19.23;11.93;;;;;;;;;;5111303;28;20481;-70
2022/03/15 09:27:31;;;;;;;15.63;11.70;;;;;;;;;;5111332;28;20521;-70
2022/03/15 09:29:58;;;;;;;18.13;11.50;;;;;;;;;;5112745;28;20454;-70
2022/03/15 09:32:27;;;;;;;31.30;12.40;;;;;;;;;;5115451;28;20449;-70
2022/03/15 09:34:54;;;;;;;14.20;11.97;;;;;;;;;;5115044;28;20459;-70
2022/03/15 09:37:22;;;;;;;15.23;12.70;;;;;;;;;;5115259;28;20469;-70
2022/03/15 09:39:49;;;;;;;14.40;11.87;;;;;;;;;;5114393;28;20449;-70
2022/03/15 09:42:17;;;;;;;17.63;11.80;;;;;;;;;;5095808;28;20447;-70
2022/03/15 09:44:45;;;;;;;18.53;12.07;;;;;;;;;;5095768;28;20500;-70
2022/03/15 09:47:14;;;;;;;14.30;11.17;;;;;;;;;;5095699;28;20502;-70
2022/03/15 09:49:44;;;;;;;25.93;18.57;;;;;;;;;;5096077;28;20454;-70
2022/03/15 09:52:12;;;;;;;17.47;13.27;;;;;;;;;;5096028;28;20446;-70
2022/03/15 09:54:39;;;;;;;17.90;12.27;;;;;;;;;;5095777;28;20454;-70
2022/03/15 09:57:07;;;;;;;13.47;11.00;;;;;;;;;;5095756;28;20467;-70
2022/03/15 09:59:34;;;;;;;14.00;11.10;;;;;;;;;;5095807;28;20814;-70
2022/03/15 10:02:01;;;;;;;16.03;12.17;;;;;;;;;;5095626;28;20454;-70
2022/03/15 10:04:29;;;;;;;13.70;10.90;;;;;;;;;;5095257;28;20835;-70
2022/03/15 10:06:58;;;;;;;17.57;10.60;;;;;;;;;;5095434;28;20489;-70
2022/03/15 10:09:26;;;;;;;13.57;11.10;;;;;;;;;;5095708;28;20454;-70
2022/03/15 10:11:54;;;;;;;11.67;10.07;;;;;;;;;;5095473;28;20453;-70
2022/03/15 10:14:21;;;;;;;17.73;12.57;;;;;;;;;;5095404;28;20470;-70
2022/03/15 10:16:50;;;;;;;18.60;12.23;;;;;;;;;;5095553;28;20450;-70
2022/03/15 10:19:17;;;;;;;17.00;11.60;;;;;;;;;;5095541;28;20458;-70
2022/03/15 10:21:47;;;;;;;15.30;11.20;;;;;;;;;;5095389;28;20800;-70
2022/03/15 10:24:17;;;;;;;11.20;9.70;;;;;;;;;;5095430;28;20959;-70
2022/03/15 10:26:45;;;;;;;16.83;12.33;;;;;;;;;;5095060;28;20479;-70
2022/03/15 10:29:13;;;;;;;16.13;12.37;;;;;;;;;;5095172;28;20545;-70
2022/03/15 10:31:41;;;;;;;15.40;11.97;;;;;;;;;;5095121;28;20458;-70
2022/03/15 10:34:08;;;;;;;18.00;11.47;;;;;;;;;;5094737;28;20454;-70
2022/03/15 10:36:39;;;;;;;14.67;11.90;;;;;;;;;;5095074;28;20443;-70
2022/03/15 10:39:07;;;;;;;17.20;13.17;;;;;;;;;;5094825;28;20466;-70
2022/03/15 10:41:45;;;;;;;18.07;11.90;;;;;;;;;;5093705;28;20447;-70
2022/03/15 10:44:22;;;;;;;14.00;11.43;;;;;;;;;;5094483;28;20505;-70
2022/03/15 10:46:59;;;;;;;14.83;11.20;;;;;;;;;;5112392;28;21028;-70
2022/03/15 10:49:26;;;;;;;16.53;11.37;;;;;;;;;;5113977;28;20465;-70
2022/03/15 10:51:53;;;;;;;12.77;11.40;;;;;;;;;;5113780;28;20457;-70
2022/03/15 10:54:23;;;;;;;14.43;11.73;;;;;;;;;;5113773;28;20456;-70
2022/03/15 10:56:55;;;;;;;18.67;12.17;;;;;;;;;;5113478;27;20875;-70
2022/03/15 10:59:23;;;;;;;15.90;11.60;;;;;;;;;;5113538;28;20471;-70
2022/03/15 11:01:50;;;;;;;14.97;11.57;;;;;;;;;;5113793;28;20475;-70
2022/03/15 11:04:18;;;;;;;11.37;10.23;;;;;;;;;;5112946;28;20453;-70
2022/03/15 11:06:46;;;;;;;14.83;10.87;;;;;;;;;;5113357;28;20481;-70
2022/03/15 11:09:21;;;;;;;15.47;11.43;;;;;;;;;;5114600;28;20452;-70
2022/03/15 11:11:49;;;;;;;14.03;10.43;;;;;;;;;;5113520;28;20536;-70
2022/03/15 11:14:28;;;;;;;16.43;11.73;;;;;;;;;;5113288;28;20454;-70
2022/03/15 11:16:56;;;;;;;14.80;9.40;;;;;;;;;;5113458;28;20445;-70
2022/03/15 11:19:24;;;;;;;13.10;9.07;;;;;;;;;;5113450;28;20449;-70
2022/03/15 11:21:51;;;;;;;11.70;8.70;;;;;;;;;;5113089;28;20453;-70
2022/03/15 11:24:21;;;;;;;9.23;8.20;;;;;;;;;;5113278;28;20464;-70
2022/03/15 11:26:49;;;;;;;9.73;8.53;;;;;;;;;;5113098;28;20530;-70
2022/03/15 11:29:23;;;;;;;10.60;8.53;;;;;;;;;;5113302;28;20456;-70
2022/03/15 11:31:50;;;;;;;15.57;8.37;;;;;;;;;;5113678;28;20461;-70
2022/03/15 11:34:18;;;;;;;9.63;8.60;;;;;;;;;;5115022;28;20809;-70
2022/03/15 11:36:47;;;;;;;12.30;9.70;;;;;;;;;;5114024;28;20464;-70
2022/03/15 11:39:14;;;;;;;10.00;9.00;;;;;;;;;;5114801;28;20873;-70
2022/03/15 11:41:44;;;;;;;14.53;9.70;;;;;;;;;;5114601;28;20449;-70
2022/03/15 11:44:14;;;;;;;12.40;9.47;;;;;;;;;;5113979;28;20949;-70
2022/03/15 11:46:46;;;;;;;9.60;7.60;;;;;;;;;;5114228;28;20449;-70
2022/03/15 11:49:20;;;;;;;11.20;7.40;;;;;;;;;;5114048;28;20464;-70
2022/03/15 11:51:53;;;;;;;9.40;7.80;;;;;;;;;;5113998;28;20453;-70
2022/03/15 11:54:27;;;;;;;11.70;9.20;;;;;;;;;;5113774;28;20445;-70
2022/03/15 11:56:57;;;;;;;9.50;7.30;;;;;;;;;;5113850;28;20851;-70
2022/03/15 11:59:25;;;;;;;13.03;7.13;;;;;;;;;;5114640;28;20450;-70
2022/03/15 12:01:55;;;;;;;11.27;7.77;;;;;;;;;;5101197;27;21162;-70
2022/03/15 12:04:24;;;;;;;9.20;8.07;;;;;;;;;;5121446;27;20549;-70
2022/03/15 12:06:54;;;;;;;15.70;8.97;;;;;;;;;;5104548;27;20822;-71
2022/03/15 12:09:22;;;;;;;9.97;7.73;;;;;;;;;;5096088;28;20473;-70
2022/03/15 12:12:00;;;;;;;12.90;8.03;;;;;;;;;;5093333;28;20500;-70
2022/03/15 12:14:38;;;;;;;12.13;9.13;;;;;;;;;;5093058;28;20454;-70
2022/03/15 12:17:06;;;;;;;12.33;6.63;;;;;;;;;;5093102;28;20459;-70
2022/03/15 12:19:44;;;;;;;11.93;7.60;;;;;;;;;;5093195;28;20985;-70
2022/03/15 12:22:21;;;;;;;14.80;9.07;;;;;;;;;;5093465;28;20454;-70
2022/03/15 12:24:48;;;;;;;10.87;7.10;;;;;;;;;;5093078;28;20454;-70
2022/03/15 12:27:22;;;;;;;16.00;8.67;;;;;;;;;;5093299;28;20486;-70
2022/03/15 12:29:52;;;;;;;10.37;8.30;;;;;;;;;;5092759;28;20546;-70
2022/03/15 12:32:22;;;;;;;10.00;7.70;;;;;;;;;;5093087;28;20462;-70
2022/03/15 12:34:50;;;;;;;15.77;8.50;;;;;;;;;;5092703;28;20461;-70
2022/03/15 12:37:18;;;;;;;13.30;8.00;;;;;;;;;;5093053;28;20885;-70
2022/03/15 12:39:54;;;;;;;10.50;6.83;;;;;;;;;;5092315;28;20451;-70
2022/03/15 12:42:23;;;;;;;11.30;8.80;;;;;;;;;;5091792;28;20950;-70
2022/03/15 12:44:52;;;;;;;10.07;7.90;;;;;;;;;;5091648;28;20451;-71
2022/03/15 12:47:22;;;;;;;12.43;7.00;;;;;;;;;;5092807;28;20497;-71
2022/03/15 12:50:05;;;;;;;8.93;7.30;;;;;;;;;;5092930;28;20462;-71
2022/03/15 12:52:37;;;;;;;9.60;6.90;;;;;;;;;;5093009;28;20473;-71
2022/03/15 12:55:05;;;;;;;9.47;6.47;;;;;;;;;;5092642;28;20442;-70
2022/03/15 12:57:33;;;;;;;9.73;6.70;;;;;;;;;;5092656;28;20482;-70
2022/03/15 13:00:00;;;;;;;7.87;6.10;;;;;;;;;;5092623;28;20447;-70
2022/03/15 13:02:31;;;;;;;10.67;7.63;;;;;;;;;;5092827;28;20835;-70
2022/03/15 13:04:59;;;;;;;8.50;6.83;;;;;;;;;;5093854;28;20461;-70
2022/03/15 13:07:29;;;;;;;11.50;6.90;;;;;;;;;;5096664;28;20497;-70
2022/03/15 13:09:58;;;;;;;14.53;10.87;;;;;;;;;;5096645;28;20896;-70
2022/03/15 13:12:31;;;;;;;11.40;8.40;;;;;;;;;;5099274;28;20489;-70
2022/03/15 13:14:59;;;;;;;11.00;8.37;;;;;;;;;;5096565;28;20455;-70
2022/03/15 13:17:27;;;;;;;10.67;7.83;;;;;;;;;;5096521;28;20474;-70
2022/03/15 13:19:56;;;;;;;12.90;7.67;;;;;;;;;;5096341;28;20812;-70
2022/03/15 13:22:28;;;;;;;8.80;6.97;;;;;;;;;;5096500;28;20457;-70
2022/03/15 13:24:56;;;;;;;12.53;8.80;;;;;;;;;;5095991;28;20462;-70
2022/03/15 13:27:23;;;;;;;12.87;8.93;;;;;;;;;;5096230;28;20485;-70
2022/03/15 13:29:50;;;;;;;10.20;7.73;;;;;;;;;;5096238;28;20454;-70
2022/03/15 13:32:23;;;;;;;8.60;6.90;;;;;;;;;;5096186;28;20914;-70
2022/03/15 13:34:57;;;;;;;8.60;6.30;;;;;;;;;;5095551;28;20512;-70
2022/03/15 13:37:25;;;;;;;8.40;6.67;;;;;;;;;;5096198;28;20470;-71
2022/03/15 13:39:52;;;;;;;6.80;5.93;;;;;;;;;;5096006;28;20446;-71
2022/03/15 13:42:21;;;;;;;8.03;5.83;;;;;;;;;;5096129;28;20453;-71
2022/03/15 13:44:53;;;;;;;9.43;5.83;;;;;;;;;;5095689;28;20457;-71
2022/03/15 13:47:23;;;;;;;9.17;6.33;;;;;;;;;;5095780;28;20978;-71
2022/03/15 13:49:52;;;;;;;8.40;6.57;;;;;;;;;;5095812;28;20454;-71
2022/03/15 13:52:23;;;;;;;9.07;6.50;;;;;;;;;;5095949;28;20458;-71
2022/03/15 13:54:50;;;;;;;10.87;7.70;;;;;;;;;;5095695;28;21016;-70
2022/03/15 13:57:26;;;;;;;9.10;7.10;;;;;;;;;;5095743;28;20539;-70
2022/03/15 13:59:57;;;;;;;11.60;7.03;;;;;;;;;;5095715;28;20476;-70
2022/03/15 14:02:24;;;;;;;9.60;6.67;;;;;;;;;;5095719;28;20458;-70
2022/03/15 14:05:00;;;;;;;11.37;8.23;;;;;;;;;;5095371;28;20478;-70
2022/03/15 14:07:29;;;;;;;8.97;6.70;;;;;;;;;;5095504;28;20510;-70
2022/03/15 14:10:00;;;;;;;8.97;6.80;;;;;;;;;;5095364;28;20450;-70
2022/03/15 14:12:31;;;;;;;11.20;7.50;;;;;;;;;;5095609;28;20823;-70
2022/03/15 14:15:02;;;;;;;9.60;7.90;;;;;;;;;;5095026;28;20457;-70
2022/03/15 14:17:32;;;;;;;12.40;7.60;;;;;;;;;;5095246;28;20482;-70
2022/03/15 14:20:00;;;;;;;11.17;7.10;;;;;;;;;;5095473;28;20552;-70
2022/03/15 14:22:31;;;;;;;12.23;8.83;;;;;;;;;;5095337;28;20454;-71
2022/03/15 14:25:00;;;;;;;12.63;8.87;;;;;;;;;;5095147;28;20553;-70
2022/03/15 14:27:27;;;;;;;11.27;7.40;;;;;;;;;;5095114;28;20477;-70